Lusk, Wyoming
Current Conditions -  °F | °C
As of 12:15 PM on Friday 21 Nov 2014 (Local Time) from KGUR Reporting Station
Clear Clear  
Wind Chill: 62°   Ceiling: Unl
Heat Index: 62°   Visibility: 10mi
Dew Point: 20°   Wind: 15mph
Humidity: 20%   Direction: 310°NW
Pressure: 29.87"   Gusts: NA
Location:  42.76°N, 104.45°W
Report Text: KGUR 211915Z AUTO 31013KT 10SM CLR 17/M06 A2987 RMK AO2 T01691064
Loading
Personal Weather Stations






























Interactive Weather Map New forecast layout! Learn more

10-Day Weather Forecast

Advertisements
Track Severe Weather on mobile